sensor_id;sensor_type;location;lat;lon;timestamp;P1;durP1;ratioP1;P2;durP2;ratioP2
53835;SDS011;39737;43.334;21.936;2024-02-15T00:00:56;9.00;;;6.90;;
53835;SDS011;39737;43.334;21.936;2024-02-15T00:03:46;15.98;;;6.72;;
53835;SDS011;39737;43.334;21.936;2024-02-15T00:06:32;9.93;;;6.07;;
53835;SDS011;39737;43.334;21.936;2024-02-15T00:09:18;6.57;;;5.95;;
53835;SDS011;39737;43.334;21.936;2024-02-15T00:12:05;5.43;;;4.95;;
53835;SDS011;39737;43.334;21.936;2024-02-15T00:14:52;6.55;;;5.88;;
53835;SDS011;39737;43.334;21.936;2024-02-15T00:17:39;6.30;;;5.10;;
53835;SDS011;39737;43.334;21.936;2024-02-15T00:20:26;10.50;;;7.25;;
53835;SDS011;39737;43.334;21.936;2024-02-15T00:23:13;18.05;;;7.07;;
53835;SDS011;39737;43.334;21.936;2024-02-15T00:26:00;12.98;;;5.15;;
53835;SDS011;39737;43.334;21.936;2024-02-15T00:28:47;7.88;;;4.28;;
53835;SDS011;39737;43.334;21.936;2024-02-15T00:31:35;5.32;;;3.70;;
53835;SDS011;39737;43.334;21.936;2024-02-15T00:34:21;4.57;;;4.13;;
53835;SDS011;39737;43.334;21.936;2024-02-15T00:37:08;4.68;;;4.22;;
53835;SDS011;39737;43.334;21.936;2024-02-15T00:39:55;11.35;;;3.15;;
53835;SDS011;39737;43.334;21.936;2024-02-15T00:42:41;1.70;;;1.60;;
53835;SDS011;39737;43.334;21.936;2024-02-15T00:45:28;3.20;;;3.00;;
53835;SDS011;39737;43.334;21.936;2024-02-15T00:48:14;5.03;;;4.30;;
53835;SDS011;39737;43.334;21.936;2024-02-15T00:51:01;6.82;;;5.38;;
53835;SDS011;39737;43.334;21.936;2024-02-15T00:53:47;3.17;;;2.67;;
53835;SDS011;39737;43.334;21.936;2024-02-15T00:56:34;5.28;;;3.92;;
53835;SDS011;39737;43.334;21.936;2024-02-15T00:59:20;5.40;;;4.45;;
53835;SDS011;39737;43.334;21.936;2024-02-15T01:02:07;3.08;;;2.88;;
53835;SDS011;39737;43.334;21.936;2024-02-15T01:04:53;5.43;;;4.25;;
53835;SDS011;39737;43.334;21.936;2024-02-15T01:07:41;2.78;;;2.40;;
53835;SDS011;39737;43.334;21.936;2024-02-15T01:10:27;7.57;;;4.75;;
53835;SDS011;39737;43.334;21.936;2024-02-15T01:13:14;13.32;;;3.05;;
53835;SDS011;39737;43.334;21.936;2024-02-15T01:16:00;1.65;;;1.55;;
53835;SDS011;39737;43.334;21.936;2024-02-15T01:18:50;4.88;;;4.43;;
53835;SDS011;39737;43.334;21.936;2024-02-15T01:21:36;10.43;;;6.80;;
53835;SDS011;39737;43.334;21.936;2024-02-15T01:24:25;1.75;;;1.65;;
53835;SDS011;39737;43.334;21.936;2024-02-15T01:27:12;7.40;;;2.35;;
53835;SDS011;39737;43.334;21.936;2024-02-15T01:29:58;5.43;;;3.47;;
53835;SDS011;39737;43.334;21.936;2024-02-15T01:32:44;9.40;;;4.20;;
53835;SDS011;39737;43.334;21.936;2024-02-15T01:35:31;5.35;;;4.20;;
53835;SDS011;39737;43.334;21.936;2024-02-15T01:38:17;3.25;;;3.05;;
53835;SDS011;39737;43.334;21.936;2024-02-15T01:41:03;3.78;;;3.47;;
53835;SDS011;39737;43.334;21.936;2024-02-15T01:43:50;5.63;;;3.80;;
53835;SDS011;39737;43.334;21.936;2024-02-15T01:46:37;3.15;;;2.97;;
53835;SDS011;39737;43.334;21.936;2024-02-15T01:49:23;8.68;;;3.53;;
53835;SDS011;39737;43.334;21.936;2024-02-15T01:52:11;4.60;;;3.63;;
53835;SDS011;39737;43.334;21.936;2024-02-15T01:54:59;7.25;;;3.53;;
53835;SDS011;39737;43.334;21.936;2024-02-15T01:57:46;2.00;;;1.90;;
53835;SDS011;39737;43.334;21.936;2024-02-15T02:00:34;7.80;;;2.63;;
53835;SDS011;39737;43.334;21.936;2024-02-15T02:03:21;5.00;;;4.50;;
53835;SDS011;39737;43.334;21.936;2024-02-15T02:06:07;3.17;;;2.55;;
53835;SDS011;39737;43.334;21.936;2024-02-15T02:08:54;2.30;;;2.13;;
53835;SDS011;39737;43.334;21.936;2024-02-15T02:11:43;2.88;;;2.67;;
53835;SDS011;39737;43.334;21.936;2024-02-15T02:14:31;3.83;;;3.47;;
53835;SDS011;39737;43.334;21.936;2024-02-15T02:17:17;9.27;;;4.93;;
53835;SDS011;39737;43.334;21.936;2024-02-15T02:20:06;7.70;;;4.32;;
53835;SDS011;39737;43.334;21.936;2024-02-15T02:22:56;6.82;;;4.35;;
53835;SDS011;39737;43.334;21.936;2024-02-15T02:25:46;3.88;;;2.58;;
53835;SDS011;39737;43.334;21.936;2024-02-15T02:28:35;3.85;;;3.47;;
53835;SDS011;39737;43.334;21.936;2024-02-15T02:31:22;3.33;;;3.05;;
53835;SDS011;39737;43.334;21.936;2024-02-15T02:34:08;6.22;;;2.70;;
53835;SDS011;39737;43.334;21.936;2024-02-15T02:36:55;2.95;;;2.70;;
53835;SDS011;39737;43.334;21.936;2024-02-15T02:39:42;3.85;;;3.55;;
53835;SDS011;39737;43.334;21.936;2024-02-15T02:42:29;4.57;;;4.18;;
53835;SDS011;39737;43.334;21.936;2024-02-15T02:45:15;5.07;;;3.38;;
53835;SDS011;39737;43.334;21.936;2024-02-15T02:48:02;2.38;;;2.17;;
53835;SDS011;39737;43.334;21.936;2024-02-15T02:50:49;9.65;;;2.80;;
53835;SDS011;39737;43.334;21.936;2024-02-15T02:53:36;6.75;;;2.15;;
53835;SDS011;39737;43.334;21.936;2024-02-15T02:56:22;3.03;;;2.63;;
53835;SDS011;39737;43.334;21.936;2024-02-15T02:59:08;6.50;;;2.70;;
53835;SDS011;39737;43.334;21.936;2024-02-15T03:01:55;2.30;;;2.13;;
53835;SDS011;39737;43.334;21.936;2024-02-15T03:04:42;10.45;;;3.03;;
53835;SDS011;39737;43.334;21.936;2024-02-15T03:07:28;2.95;;;2.70;;
53835;SDS011;39737;43.334;21.936;2024-02-15T03:10:33;4.05;;;3.65;;
53835;SDS011;39737;43.334;21.936;2024-02-15T03:13:20;3.97;;;3.58;;
53835;SDS011;39737;43.334;21.936;2024-02-15T03:16:06;4.80;;;2.53;;
53835;SDS011;39737;43.334;21.936;2024-02-15T03:18:52;2.88;;;2.35;;
53835;SDS011;39737;43.334;21.936;2024-02-15T03:21:39;2.83;;;2.58;;
53835;SDS011;39737;43.334;21.936;2024-02-15T03:24:25;2.97;;;2.78;;
53835;SDS011;39737;43.334;21.936;2024-02-15T03:27:12;2.88;;;2.65;;
53835;SDS011;39737;43.334;21.936;2024-02-15T03:30:01;4.03;;;3.72;;
53835;SDS011;39737;43.334;21.936;2024-02-15T03:32:48;3.50;;;2.42;;
53835;SDS011;39737;43.334;21.936;2024-02-15T03:35:37;2.40;;;1.88;;
53835;SDS011;39737;43.334;21.936;2024-02-15T03:38:24;3.20;;;2.78;;
53835;SDS011;39737;43.334;21.936;2024-02-15T03:41:10;3.20;;;2.33;;
53835;SDS011;39737;43.334;21.936;2024-02-15T03:43:59;8.23;;;4.05;;
53835;SDS011;39737;43.334;21.936;2024-02-15T03:46:45;2.95;;;2.67;;
53835;SDS011;39737;43.334;21.936;2024-02-15T03:49:37;3.03;;;2.75;;
53835;SDS011;39737;43.334;21.936;2024-02-15T03:52:23;30.85;;;4.65;;
53835;SDS011;39737;43.334;21.936;2024-02-15T03:55:10;6.38;;;4.47;;
53835;SDS011;39737;43.334;21.936;2024-02-15T03:57:57;3.70;;;2.65;;
53835;SDS011;39737;43.334;21.936;2024-02-15T04:00:44;7.05;;;2.85;;
53835;SDS011;39737;43.334;21.936;2024-02-15T04:03:31;2.05;;;1.95;;
53835;SDS011;39737;43.334;21.936;2024-02-15T04:06:18;6.68;;;3.60;;
53835;SDS011;39737;43.334;21.936;2024-02-15T04:09:05;4.63;;;2.17;;
53835;SDS011;39737;43.334;21.936;2024-02-15T04:11:53;2.35;;;2.15;;
53835;SDS011;39737;43.334;21.936;2024-02-15T04:14:58;3.13;;;2.75;;
53835;SDS011;39737;43.334;21.936;2024-02-15T04:17:59;1.63;;;1.52;;
53835;SDS011;39737;43.334;21.936;2024-02-15T04:20:46;2.78;;;2.42;;
53835;SDS011;39737;43.334;21.936;2024-02-15T04:23:35;5.35;;;1.80;;
53835;SDS011;39737;43.334;21.936;2024-02-15T04:26:21;2.50;;;2.30;;
53835;SDS011;39737;43.334;21.936;2024-02-15T04:29:10;2.63;;;1.88;;
53835;SDS011;39737;43.334;21.936;2024-02-15T04:31:58;19.35;;;4.40;;
53835;SDS011;39737;43.334;21.936;2024-02-15T04:34:44;1.50;;;1.40;;
53835;SDS011;39737;43.334;21.936;2024-02-15T04:37:33;6.30;;;3.45;;
53835;SDS011;39737;43.334;21.936;2024-02-15T04:40:21;4.47;;;2.92;;
53835;SDS011;39737;43.334;21.936;2024-02-15T04:43:07;6.07;;;2.95;;
53835;SDS011;39737;43.334;21.936;2024-02-15T04:45:54;2.95;;;2.28;;
53835;SDS011;39737;43.334;21.936;2024-02-15T04:48:41;3.28;;;1.90;;
53835;SDS011;39737;43.334;21.936;2024-02-15T04:51:28;12.90;;;3.85;;
53835;SDS011;39737;43.334;21.936;2024-02-15T04:54:15;3.38;;;2.17;;
53835;SDS011;39737;43.334;21.936;2024-02-15T04:57:02;4.05;;;2.53;;
53835;SDS011;39737;43.334;21.936;2024-02-15T04:59:48;6.47;;;3.13;;
53835;SDS011;39737;43.334;21.936;2024-02-15T05:02:36;6.63;;;2.60;;
53835;SDS011;39737;43.334;21.936;2024-02-15T05:05:27;3.80;;;1.50;;
53835;SDS011;39737;43.334;21.936;2024-02-15T05:08:15;3.90;;;3.60;;
53835;SDS011;39737;43.334;21.936;2024-02-15T05:11:01;14.15;;;5.47;;
53835;SDS011;39737;43.334;21.936;2024-02-15T05:13:50;9.35;;;3.80;;
53835;SDS011;39737;43.334;21.936;2024-02-15T05:16:37;6.28;;;4.00;;
53835;SDS011;39737;43.334;21.936;2024-02-15T05:19:28;6.40;;;2.63;;
53835;SDS011;39737;43.334;21.936;2024-02-15T05:22:16;2.30;;;2.13;;
53835;SDS011;39737;43.334;21.936;2024-02-15T05:25:08;1.15;;;1.00;;
53835;SDS011;39737;43.334;21.936;2024-02-15T05:27:54;4.50;;;2.78;;
53835;SDS011;39737;43.334;21.936;2024-02-15T05:30:42;2.67;;;2.45;;
53835;SDS011;39737;43.334;21.936;2024-02-15T05:33:30;9.48;;;1.92;;
53835;SDS011;39737;43.334;21.936;2024-02-15T05:36:19;4.22;;;3.40;;
53835;SDS011;39737;43.334;21.936;2024-02-15T05:39:06;5.55;;;5.00;;
53835;SDS011;39737;43.334;21.936;2024-02-15T05:41:53;4.68;;;2.90;;
53835;SDS011;39737;43.334;21.936;2024-02-15T05:44:40;13.18;;;8.68;;
53835;SDS011;39737;43.334;21.936;2024-02-15T05:47:28;5.72;;;2.25;;
53835;SDS011;39737;43.334;21.936;2024-02-15T05:50:15;1.70;;;1.60;;
53835;SDS011;39737;43.334;21.936;2024-02-15T05:53:01;4.18;;;2.65;;
53835;SDS011;39737;43.334;21.936;2024-02-15T05:55:48;9.00;;;4.32;;
53835;SDS011;39737;43.334;21.936;2024-02-15T05:58:35;2.65;;;2.53;;
53835;SDS011;39737;43.334;21.936;2024-02-15T06:01:22;6.95;;;6.20;;
53835;SDS011;39737;43.334;21.936;2024-02-15T06:04:10;5.75;;;5.32;;
53835;SDS011;39737;43.334;21.936;2024-02-15T06:06:57;7.45;;;6.50;;
53835;SDS011;39737;43.334;21.936;2024-02-15T06:09:46;10.15;;;5.68;;
53835;SDS011;39737;43.334;21.936;2024-02-15T06:12:33;16.65;;;4.88;;
53835;SDS011;39737;43.334;21.936;2024-02-15T06:15:20;9.85;;;6.05;;
53835;SDS011;39737;43.334;21.936;2024-02-15T06:18:06;20.50;;;4.30;;
53835;SDS011;39737;43.334;21.936;2024-02-15T06:20:56;4.55;;;3.97;;
53835;SDS011;39737;43.334;21.936;2024-02-15T06:23:43;10.30;;;3.20;;
53835;SDS011;39737;43.334;21.936;2024-02-15T06:26:29;8.90;;;5.05;;
53835;SDS011;39737;43.334;21.936;2024-02-15T06:29:16;12.63;;;7.32;;
53835;SDS011;39737;43.334;21.936;2024-02-15T06:32:20;12.38;;;6.63;;
53835;SDS011;39737;43.334;21.936;2024-02-15T06:35:25;6.32;;;5.70;;
53835;SDS011;39737;43.334;21.936;2024-02-15T06:38:30;26.02;;;9.63;;
53835;SDS011;39737;43.334;21.936;2024-02-15T06:41:35;6.28;;;4.50;;
53835;SDS011;39737;43.334;21.936;2024-02-15T06:44:21;5.75;;;3.67;;
53835;SDS011;39737;43.334;21.936;2024-02-15T06:47:10;4.85;;;4.45;;
53835;SDS011;39737;43.334;21.936;2024-02-15T06:49:57;7.22;;;5.10;;
53835;SDS011;39737;43.334;21.936;2024-02-15T06:52:44;4.78;;;2.88;;
53835;SDS011;39737;43.334;21.936;2024-02-15T06:55:31;11.30;;;4.70;;
53835;SDS011;39737;43.334;21.936;2024-02-15T06:58:17;25.13;;;8.98;;
53835;SDS011;39737;43.334;21.936;2024-02-15T07:01:04;8.18;;;6.95;;
53835;SDS011;39737;43.334;21.936;2024-02-15T07:03:51;4.63;;;4.18;;
53835;SDS011;39737;43.334;21.936;2024-02-15T07:06:41;7.18;;;5.38;;
53835;SDS011;39737;43.334;21.936;2024-02-15T07:09:31;7.28;;;4.65;;
53835;SDS011;39737;43.334;21.936;2024-02-15T07:12:18;10.32;;;6.45;;
53835;SDS011;39737;43.334;21.936;2024-02-15T07:15:25;7.47;;;5.43;;
53835;SDS011;39737;43.334;21.936;2024-02-15T07:18:12;9.02;;;5.35;;
53835;SDS011;39737;43.334;21.936;2024-02-15T07:21:01;5.57;;;5.07;;
53835;SDS011;39737;43.334;21.936;2024-02-15T07:23:50;55.72;;;26.25;;
53835;SDS011;39737;43.334;21.936;2024-02-15T07:26:37;37.58;;;23.33;;
53835;SDS011;39737;43.334;21.936;2024-02-15T07:29:24;44.58;;;25.73;;
53835;SDS011;39737;43.334;21.936;2024-02-15T07:32:11;52.85;;;25.73;;
53835;SDS011;39737;43.334;21.936;2024-02-15T07:34:58;61.30;;;35.03;;
53835;SDS011;39737;43.334;21.936;2024-02-15T07:37:51;80.43;;;39.45;;
53835;SDS011;39737;43.334;21.936;2024-02-15T07:40:37;122.15;;;57.40;;
53835;SDS011;39737;43.334;21.936;2024-02-15T07:43:26;138.13;;;62.03;;
53835;SDS011;39737;43.334;21.936;2024-02-15T07:46:13;114.93;;;58.05;;
53835;SDS011;39737;43.334;21.936;2024-02-15T07:48:59;133.00;;;59.60;;
53835;SDS011;39737;43.334;21.936;2024-02-15T07:51:46;149.60;;;73.15;;
53835;SDS011;39737;43.334;21.936;2024-02-15T07:54:39;62.33;;;33.92;;
53835;SDS011;39737;43.334;21.936;2024-02-15T07:57:25;101.63;;;53.83;;
53835;SDS011;39737;43.334;21.936;2024-02-15T08:00:12;50.20;;;28.85;;
53835;SDS011;39737;43.334;21.936;2024-02-15T08:03:04;54.22;;;30.70;;
53835;SDS011;39737;43.334;21.936;2024-02-15T08:05:50;51.80;;;27.92;;
53835;SDS011;39737;43.334;21.936;2024-02-15T08:08:39;51.53;;;28.23;;
53835;SDS011;39737;43.334;21.936;2024-02-15T08:11:27;46.90;;;25.92;;
53835;SDS011;39737;43.334;21.936;2024-02-15T08:14:14;52.40;;;26.67;;
53835;SDS011;39737;43.334;21.936;2024-02-15T08:17:00;46.03;;;25.20;;
53835;SDS011;39737;43.334;21.936;2024-02-15T08:19:47;44.95;;;22.50;;
53835;SDS011;39737;43.334;21.936;2024-02-15T08:22:34;36.85;;;20.40;;
53835;SDS011;39737;43.334;21.936;2024-02-15T08:25:22;44.78;;;23.30;;
53835;SDS011;39737;43.334;21.936;2024-02-15T08:28:09;47.80;;;25.88;;
53835;SDS011;39737;43.334;21.936;2024-02-15T08:31:16;38.47;;;24.40;;
53835;SDS011;39737;43.334;21.936;2024-02-15T08:34:05;40.88;;;26.73;;
53835;SDS011;39737;43.334;21.936;2024-02-15T08:36:52;39.75;;;24.90;;
53835;SDS011;39737;43.334;21.936;2024-02-15T08:39:40;46.58;;;25.67;;
53835;SDS011;39737;43.334;21.936;2024-02-15T08:42:26;77.40;;;43.35;;
53835;SDS011;39737;43.334;21.936;2024-02-15T08:45:13;42.90;;;23.42;;
53835;SDS011;39737;43.334;21.936;2024-02-15T08:48:00;45.40;;;19.27;;
53835;SDS011;39737;43.334;21.936;2024-02-15T08:50:53;35.85;;;19.52;;
53835;SDS011;39737;43.334;21.936;2024-02-15T08:53:40;38.25;;;20.58;;
53835;SDS011;39737;43.334;21.936;2024-02-15T08:56:27;31.38;;;11.52;;
53835;SDS011;39737;43.334;21.936;2024-02-15T08:59:14;21.65;;;10.60;;
53835;SDS011;39737;43.334;21.936;2024-02-15T09:02:03;20.15;;;11.10;;
53835;SDS011;39737;43.334;21.936;2024-02-15T09:04:51;58.88;;;25.33;;
53835;SDS011;39737;43.334;21.936;2024-02-15T09:07:40;21.63;;;14.45;;
53835;SDS011;39737;43.334;21.936;2024-02-15T09:10:29;18.92;;;12.52;;
53835;SDS011;39737;43.334;21.936;2024-02-15T09:13:16;34.75;;;14.57;;
53835;SDS011;39737;43.334;21.936;2024-02-15T09:16:03;15.80;;;8.60;;
53835;SDS011;39737;43.334;21.936;2024-02-15T09:18:52;20.60;;;9.25;;
53835;SDS011;39737;43.334;21.936;2024-02-15T09:21:40;16.50;;;9.05;;
53835;SDS011;39737;43.334;21.936;2024-02-15T09:24:29;22.83;;;12.93;;
53835;SDS011;39737;43.334;21.936;2024-02-15T09:27:16;25.38;;;15.15;;
53835;SDS011;39737;43.334;21.936;2024-02-15T09:30:03;21.58;;;11.38;;
53835;SDS011;39737;43.334;21.936;2024-02-15T09:32:54;22.48;;;11.00;;
53835;SDS011;39737;43.334;21.936;2024-02-15T09:35:42;24.58;;;15.55;;
53835;SDS011;39737;43.334;21.936;2024-02-15T09:38:32;17.73;;;8.27;;
53835;SDS011;39737;43.334;21.936;2024-02-15T09:41:37;32.83;;;18.00;;
53835;SDS011;39737;43.334;21.936;2024-02-15T09:44:25;39.55;;;21.15;;
53835;SDS011;39737;43.334;21.936;2024-02-15T09:47:14;20.23;;;9.05;;
53835;SDS011;39737;43.334;21.936;2024-02-15T09:50:01;38.47;;;18.05;;
53835;SDS011;39737;43.334;21.936;2024-02-15T09:52:52;31.92;;;18.98;;
53835;SDS011;39737;43.334;21.936;2024-02-15T09:55:40;40.00;;;22.63;;
53835;SDS011;39737;43.334;21.936;2024-02-15T09:58:29;37.53;;;21.55;;
53835;SDS011;39737;43.334;21.936;2024-02-15T10:01:22;23.67;;;13.73;;
53835;SDS011;39737;43.334;21.936;2024-02-15T10:04:09;17.65;;;12.13;;
53835;SDS011;39737;43.334;21.936;2024-02-15T10:06:58;44.53;;;21.02;;
53835;SDS011;39737;43.334;21.936;2024-02-15T10:09:44;29.92;;;17.42;;
53835;SDS011;39737;43.334;21.936;2024-02-15T10:12:37;22.23;;;9.02;;
53835;SDS011;39737;43.334;21.936;2024-02-15T10:15:31;11.50;;;5.20;;
53835;SDS011;39737;43.334;21.936;2024-02-15T10:18:19;18.67;;;9.82;;
53835;SDS011;39737;43.334;21.936;2024-02-15T10:21:06;12.57;;;8.30;;
53835;SDS011;39737;43.334;21.936;2024-02-15T10:24:03;8.38;;;4.53;;
53835;SDS011;39737;43.334;21.936;2024-02-15T10:26:51;6.60;;;4.60;;
53835;SDS011;39737;43.334;21.936;2024-02-15T10:29:38;9.40;;;6.80;;
53835;SDS011;39737;43.334;21.936;2024-02-15T10:32:34;45.03;;;18.40;;
53835;SDS011;39737;43.334;21.936;2024-02-15T10:35:21;8.18;;;6.88;;
53835;SDS011;39737;43.334;21.936;2024-02-15T10:38:08;37.78;;;17.77;;
53835;SDS011;39737;43.334;21.936;2024-02-15T10:41:02;17.98;;;9.02;;
53835;SDS011;39737;43.334;21.936;2024-02-15T10:43:51;40.55;;;13.27;;
53835;SDS011;39737;43.334;21.936;2024-02-15T10:46:38;26.38;;;10.70;;
53835;SDS011;39737;43.334;21.936;2024-02-15T10:49:24;13.25;;;7.68;;
53835;SDS011;39737;43.334;21.936;2024-02-15T10:52:11;16.63;;;4.13;;
53835;SDS011;39737;43.334;21.936;2024-02-15T10:55:04;11.07;;;6.82;;
53835;SDS011;39737;43.334;21.936;2024-02-15T10:57:51;12.20;;;4.65;;
53835;SDS011;39737;43.334;21.936;2024-02-15T11:00:38;22.50;;;8.50;;
53835;SDS011;39737;43.334;21.936;2024-02-15T11:03:50;17.52;;;7.05;;
53835;SDS011;39737;43.334;21.936;2024-02-15T11:06:38;19.65;;;10.90;;
53835;SDS011;39737;43.334;21.936;2024-02-15T11:09:29;11.13;;;8.02;;
53835;SDS011;39737;43.334;21.936;2024-02-15T11:12:15;2.35;;;2.15;;
53835;SDS011;39737;43.334;21.936;2024-02-15T11:18:45;13.02;;;5.90;;
53835;SDS011;39737;43.334;21.936;2024-02-15T11:21:55;4.35;;;3.10;;
53835;SDS011;39737;43.334;21.936;2024-02-15T11:24:51;3.13;;;2.55;;
53835;SDS011;39737;43.334;21.936;2024-02-15T11:27:38;4.45;;;2.72;;
53835;SDS011;39737;43.334;21.936;2024-02-15T11:30:38;12.90;;;8.35;;
53835;SDS011;39737;43.334;21.936;2024-02-15T11:33:28;9.90;;;5.28;;
53835;SDS011;39737;43.334;21.936;2024-02-15T11:36:18;5.85;;;3.85;;
53835;SDS011;39737;43.334;21.936;2024-02-15T11:42:24;9.93;;;4.72;;
53835;SDS011;39737;43.334;21.936;2024-02-15T11:45:11;15.23;;;7.05;;
53835;SDS011;39737;43.334;21.936;2024-02-15T11:47:58;5.85;;;3.70;;
53835;SDS011;39737;43.334;21.936;2024-02-15T11:50:45;3.90;;;3.60;;
53835;SDS011;39737;43.334;21.936;2024-02-15T11:53:33;53.40;;;18.75;;
53835;SDS011;39737;43.334;21.936;2024-02-15T11:56:19;72.65;;;27.38;;
53835;SDS011;39737;43.334;21.936;2024-02-15T11:59:06;5.80;;;4.10;;
53835;SDS011;39737;43.334;21.936;2024-02-15T12:01:52;10.43;;;6.68;;
53835;SDS011;39737;43.334;21.936;2024-02-15T12:04:57;3.08;;;2.83;;
53835;SDS011;39737;43.334;21.936;2024-02-15T12:08:02;3.85;;;2.55;;
53835;SDS011;39737;43.334;21.936;2024-02-15T12:11:07;5.50;;;3.53;;
53835;SDS011;39737;43.334;21.936;2024-02-15T12:14:16;7.93;;;3.85;;
53835;SDS011;39737;43.334;21.936;2024-02-15T12:17:23;3.45;;;3.00;;
53835;SDS011;39737;43.334;21.936;2024-02-15T12:20:28;13.35;;;7.95;;
53835;SDS011;39737;43.334;21.936;2024-02-15T12:23:15;8.25;;;4.63;;
53835;SDS011;39737;43.334;21.936;2024-02-15T12:26:04;6.85;;;3.65;;
53835;SDS011;39737;43.334;21.936;2024-02-15T12:28:51;6.78;;;4.90;;
53835;SDS011;39737;43.334;21.936;2024-02-15T12:31:41;3.58;;;2.75;;
53835;SDS011;39737;43.334;21.936;2024-02-15T12:34:30;3.80;;;2.92;;
53835;SDS011;39737;43.334;21.936;2024-02-15T12:37:20;7.97;;;4.80;;
53835;SDS011;39737;43.334;21.936;2024-02-15T12:40:17;7.72;;;3.90;;
53835;SDS011;39737;43.334;21.936;2024-02-15T12:43:17;16.75;;;7.25;;
53835;SDS011;39737;43.334;21.936;2024-02-15T12:46:04;14.90;;;6.90;;
53835;SDS011;39737;43.334;21.936;2024-02-15T12:49:07;3.85;;;3.05;;
53835;SDS011;39737;43.334;21.936;2024-02-15T12:52:32;5.47;;;3.58;;
53835;SDS011;39737;43.334;21.936;2024-02-15T12:55:19;8.73;;;3.75;;
53835;SDS011;39737;43.334;21.936;2024-02-15T12:58:06;6.35;;;4.15;;
53835;SDS011;39737;43.334;21.936;2024-02-15T13:00:55;3.65;;;2.70;;
53835;SDS011;39737;43.334;21.936;2024-02-15T13:03:45;12.25;;;5.13;;
53835;SDS011;39737;43.334;21.936;2024-02-15T13:06:31;7.93;;;5.53;;
53835;SDS011;39737;43.334;21.936;2024-02-15T13:09:21;5.10;;;3.67;;
53835;SDS011;39737;43.334;21.936;2024-02-15T13:12:08;17.60;;;3.50;;
53835;SDS011;39737;43.334;21.936;2024-02-15T13:14:57;11.05;;;6.40;;
53835;SDS011;39737;43.334;21.936;2024-02-15T13:17:44;13.68;;;6.22;;
53835;SDS011;39737;43.334;21.936;2024-02-15T13:20:40;3.67;;;2.78;;
53835;SDS011;39737;43.334;21.936;2024-02-15T13:23:27;9.40;;;6.00;;
53835;SDS011;39737;43.334;21.936;2024-02-15T13:26:13;7.20;;;4.40;;
53835;SDS011;39737;43.334;21.936;2024-02-15T13:29:00;8.70;;;4.95;;
53835;SDS011;39737;43.334;21.936;2024-02-15T13:31:46;6.57;;;4.88;;
53835;SDS011;39737;43.334;21.936;2024-02-15T13:34:33;3.35;;;2.60;;
53835;SDS011;39737;43.334;21.936;2024-02-15T13:37:20;4.78;;;2.67;;
53835;SDS011;39737;43.334;21.936;2024-02-15T13:40:11;7.05;;;3.50;;
53835;SDS011;39737;43.334;21.936;2024-02-15T13:43:03;7.43;;;3.65;;
53835;SDS011;39737;43.334;21.936;2024-02-15T13:45:51;8.85;;;3.97;;
53835;SDS011;39737;43.334;21.936;2024-02-15T13:48:38;5.88;;;4.00;;
53835;SDS011;39737;43.334;21.936;2024-02-15T13:51:24;4.57;;;3.28;;
53835;SDS011;39737;43.334;21.936;2024-02-15T13:54:11;8.85;;;5.85;;
53835;SDS011;39737;43.334;21.936;2024-02-15T13:56:57;9.35;;;3.28;;
53835;SDS011;39737;43.334;21.936;2024-02-15T13:59:44;14.88;;;6.05;;
53835;SDS011;39737;43.334;21.936;2024-02-15T14:02:30;13.27;;;5.90;;
53835;SDS011;39737;43.334;21.936;2024-02-15T14:05:17;19.50;;;7.25;;
53835;SDS011;39737;43.334;21.936;2024-02-15T14:08:07;5.07;;;2.40;;
53835;SDS011;39737;43.334;21.936;2024-02-15T14:10:55;4.43;;;4.03;;
53835;SDS011;39737;43.334;21.936;2024-02-15T14:13:42;3.53;;;2.70;;
53835;SDS011;39737;43.334;21.936;2024-02-15T14:16:28;2.40;;;2.20;;
53835;SDS011;39737;43.334;21.936;2024-02-15T14:19:18;3.22;;;2.88;;
53835;SDS011;39737;43.334;21.936;2024-02-15T14:22:06;11.55;;;6.60;;
53835;SDS011;39737;43.334;21.936;2024-02-15T14:24:55;4.13;;;3.20;;
53835;SDS011;39737;43.334;21.936;2024-02-15T14:27:41;5.88;;;3.55;;
53835;SDS011;39737;43.334;21.936;2024-02-15T14:30:31;6.03;;;2.67;;
53835;SDS011;39737;43.334;21.936;2024-02-15T14:33:36;4.63;;;2.13;;
53835;SDS011;39737;43.334;21.936;2024-02-15T14:36:23;7.43;;;4.25;;
53835;SDS011;39737;43.334;21.936;2024-02-15T14:39:10;4.10;;;2.50;;
53835;SDS011;39737;43.334;21.936;2024-02-15T14:41:59;7.80;;;5.80;;
53835;SDS011;39737;43.334;21.936;2024-02-15T14:44:46;7.10;;;3.40;;
53835;SDS011;39737;43.334;21.936;2024-02-15T14:47:33;9.18;;;4.47;;
53835;SDS011;39737;43.334;21.936;2024-02-15T14:50:19;14.95;;;6.40;;
53835;SDS011;39737;43.334;21.936;2024-02-15T14:53:06;3.97;;;2.95;;
53835;SDS011;39737;43.334;21.936;2024-02-15T14:55:56;7.45;;;3.72;;
53835;SDS011;39737;43.334;21.936;2024-02-15T14:58:42;9.98;;;4.45;;
53835;SDS011;39737;43.334;21.936;2024-02-15T15:01:29;6.20;;;2.22;;
53835;SDS011;39737;43.334;21.936;2024-02-15T15:04:15;6.15;;;2.47;;
53835;SDS011;39737;43.334;21.936;2024-02-15T15:07:02;2.83;;;2.13;;
53835;SDS011;39737;43.334;21.936;2024-02-15T15:10:07;6.82;;;3.97;;
53835;SDS011;39737;43.334;21.936;2024-02-15T15:13:11;4.80;;;3.45;;
53835;SDS011;39737;43.334;21.936;2024-02-15T15:15:59;7.68;;;3.58;;
53835;SDS011;39737;43.334;21.936;2024-02-15T15:18:46;8.20;;;4.15;;
53835;SDS011;39737;43.334;21.936;2024-02-15T15:21:34;6.45;;;1.67;;
53835;SDS011;39737;43.334;21.936;2024-02-15T15:24:20;14.43;;;6.05;;
53835;SDS011;39737;43.334;21.936;2024-02-15T15:27:06;14.55;;;4.13;;
53835;SDS011;39737;43.334;21.936;2024-02-15T15:29:54;3.63;;;3.33;;
53835;SDS011;39737;43.334;21.936;2024-02-15T15:32:42;6.45;;;3.78;;
53835;SDS011;39737;43.334;21.936;2024-02-15T15:35:30;2.05;;;1.67;;
53835;SDS011;39737;43.334;21.936;2024-02-15T15:38:18;3.15;;;2.53;;
53835;SDS011;39737;43.334;21.936;2024-02-15T15:41:08;8.02;;;4.22;;
53835;SDS011;39737;43.334;21.936;2024-02-15T15:43:55;4.32;;;3.25;;
53835;SDS011;39737;43.334;21.936;2024-02-15T15:46:42;20.63;;;4.10;;
53835;SDS011;39737;43.334;21.936;2024-02-15T15:49:28;13.70;;;3.88;;
53835;SDS011;39737;43.334;21.936;2024-02-15T15:52:17;6.45;;;3.13;;
53835;SDS011;39737;43.334;21.936;2024-02-15T15:55:04;3.38;;;3.00;;
53835;SDS011;39737;43.334;21.936;2024-02-15T15:57:50;8.43;;;5.40;;
53835;SDS011;39737;43.334;21.936;2024-02-15T16:00:37;8.13;;;6.07;;
53835;SDS011;39737;43.334;21.936;2024-02-15T16:03:23;7.38;;;2.65;;
53835;SDS011;39737;43.334;21.936;2024-02-15T16:06:10;3.55;;;2.78;;
53835;SDS011;39737;43.334;21.936;2024-02-15T16:08:58;6.97;;;3.65;;
53835;SDS011;39737;43.334;21.936;2024-02-15T16:11:45;15.35;;;8.93;;
53835;SDS011;39737;43.334;21.936;2024-02-15T16:14:31;34.13;;;4.80;;
53835;SDS011;39737;43.334;21.936;2024-02-15T16:17:18;7.93;;;2.78;;
53835;SDS011;39737;43.334;21.936;2024-02-15T16:20:05;1.77;;;1.67;;
53835;SDS011;39737;43.334;21.936;2024-02-15T16:22:54;11.57;;;6.57;;
53835;SDS011;39737;43.334;21.936;2024-02-15T16:25:40;4.13;;;2.60;;
53835;SDS011;39737;43.334;21.936;2024-02-15T16:28:27;3.13;;;2.20;;
53835;SDS011;39737;43.334;21.936;2024-02-15T16:31:13;8.52;;;4.50;;
53835;SDS011;39737;43.334;21.936;2024-02-15T16:33:59;12.63;;;7.35;;
53835;SDS011;39737;43.334;21.936;2024-02-15T16:36:46;7.20;;;2.20;;
53835;SDS011;39737;43.334;21.936;2024-02-15T16:39:34;2.55;;;1.85;;
53835;SDS011;39737;43.334;21.936;2024-02-15T16:42:21;2.40;;;2.15;;